Time;durP1;ratioP1;P1;durP2;ratioP2;P2;SDS_P1;SDS_P2;PMS_P1;PMS_P2;Temp;Humidity;BMP_temperature;BMP_pressure;BME280_temperature;BME280_humidity;BME280_pressure;Samples;Min_cycle;Max_cycle;Signal;HPM_P1;HPM_P2
2021/07/06 00:00:54;;;;;;;2.97;1.80;;;;;;;;;;5029233;28;20033;-68
2021/07/06 00:03:20;;;;;;;5.80;1.90;;;;;;;;;;5026612;28;20365;-70
2021/07/06 00:05:45;;;;;;;2.78;2.10;;;;;;;;;;5030994;28;20102;-69
2021/07/06 00:08:10;;;;;;;1.92;1.60;;;;;;;;;;5032242;28;20033;-69
2021/07/06 00:10:36;;;;;;;1.90;1.80;;;;;;;;;;5031092;28;20455;-68
2021/07/06 00:13:02;;;;;;;3.13;1.63;;;;;;;;;;5031876;28;20089;-69
2021/07/06 00:15:27;;;;;;;3.40;2.00;;;;;;;;;;5031152;28;20108;-68
2021/07/06 00:17:53;;;;;;;2.10;1.80;;;;;;;;;;5033134;28;20065;-69
2021/07/06 00:20:19;;;;;;;2.65;1.70;;;;;;;;;;5027443;28;20117;-69
2021/07/06 00:22:45;;;;;;;2.75;1.85;;;;;;;;;;5010430;28;20495;-69
2021/07/06 00:25:10;;;;;;;3.33;2.10;;;;;;;;;;5012065;28;20058;-68
2021/07/06 00:27:35;;;;;;;2.20;1.60;;;;;;;;;;5012455;28;20030;-69
2021/07/06 00:30:01;;;;;;;2.88;2.22;;;;;;;;;;5014084;28;20026;-69
2021/07/06 00:32:26;;;;;;;2.42;1.90;;;;;;;;;;5019584;28;20486;-71
2021/07/06 00:34:51;;;;;;;2.25;1.77;;;;;;;;;;5031636;28;20025;-69
2021/07/06 00:37:16;;;;;;;3.03;1.85;;;;;;;;;;5031467;28;20033;-68
2021/07/06 00:39:42;;;;;;;1.60;1.50;;;;;;;;;;5031461;28;20183;-68
2021/07/06 00:42:08;;;;;;;3.50;1.83;;;;;;;;;;5033402;28;20055;-68
2021/07/06 00:44:34;;;;;;;3.75;3.30;;;;;;;;;;5029967;28;20463;-68
2021/07/06 00:46:59;;;;;;;3.13;2.30;;;;;;;;;;5030433;28;20061;-68
2021/07/06 00:49:24;;;;;;;2.47;1.35;;;;;;;;;;5030079;28;20082;-67
2021/07/06 00:51:49;;;;;;;4.75;1.33;;;;;;;;;;5031295;28;20116;-68
2021/07/06 00:54:14;;;;;;;3.93;1.70;;;;;;;;;;5030825;28;20152;-67
2021/07/06 00:56:40;;;;;;;3.47;2.10;;;;;;;;;;5033020;28;20288;-68
2021/07/06 00:59:06;;;;;;;2.85;1.98;;;;;;;;;;5031157;28;20040;-68
2021/07/06 01:01:31;;;;;;;5.38;2.00;;;;;;;;;;5030182;28;20398;-68
2021/07/06 01:03:56;;;;;;;2.15;1.98;;;;;;;;;;5030380;28;20517;-68
2021/07/06 01:06:21;;;;;;;2.42;1.75;;;;;;;;;;5031194;28;20504;-68
2021/07/06 01:08:47;;;;;;;1.75;1.42;;;;;;;;;;5033130;28;20407;-68
2021/07/06 01:11:12;;;;;;;2.08;1.83;;;;;;;;;;5030816;28;20041;-68
2021/07/06 01:13:38;;;;;;;3.90;1.42;;;;;;;;;;5029653;28;20467;-68
2021/07/06 01:16:03;;;;;;;2.83;1.50;;;;;;;;;;5030984;28;20025;-69
2021/07/06 01:18:28;;;;;;;1.50;1.38;;;;;;;;;;5030318;28;20033;-68
2021/07/06 01:20:55;;;;;;;2.17;1.55;;;;;;;;;;5033003;28;20020;-68
2021/07/06 01:23:21;;;;;;;1.70;1.50;;;;;;;;;;5030806;28;20028;-68
2021/07/06 01:25:48;;;;;;;1.73;1.63;;;;;;;;;;5030970;28;20682;-68
2021/07/06 01:28:13;;;;;;;1.60;1.40;;;;;;;;;;5031154;28;20045;-68
2021/07/06 01:30:38;;;;;;;2.05;1.45;;;;;;;;;;5031000;28;20088;-67
2021/07/06 01:33:05;;;;;;;1.38;1.33;;;;;;;;;;5031547;28;20459;-67
2021/07/06 01:35:30;;;;;;;1.58;1.48;;;;;;;;;;5030920;28;20513;-67
2021/07/06 01:37:57;;;;;;;1.77;1.42;;;;;;;;;;5029500;28;20050;-68
2021/07/06 01:40:23;;;;;;;1.67;1.58;;;;;;;;;;5029539;28;20018;-68
2021/07/06 01:42:49;;;;;;;2.13;1.45;;;;;;;;;;5030447;28;20030;-68
2021/07/06 01:45:15;;;;;;;1.80;1.70;;;;;;;;;;5029103;28;20039;-68
2021/07/06 01:47:42;;;;;;;1.95;1.65;;;;;;;;;;5031075;28;20160;-69
2021/07/06 01:50:08;;;;;;;3.42;1.60;;;;;;;;;;5030635;28;20034;-67
2021/07/06 01:52:33;;;;;;;1.52;1.40;;;;;;;;;;5029049;28;20060;-68
2021/07/06 01:54:58;;;;;;;2.90;1.50;;;;;;;;;;5029054;28;20037;-68
2021/07/06 01:57:24;;;;;;;1.77;1.30;;;;;;;;;;5028964;28;20040;-68
2021/07/06 01:59:50;;;;;;;2.58;1.85;;;;;;;;;;5032000;28;20032;-68
2021/07/06 02:02:16;;;;;;;4.68;1.60;;;;;;;;;;5024166;28;20052;-69
2021/07/06 02:04:41;;;;;;;1.73;1.58;;;;;;;;;;5024829;28;20033;-68
2021/07/06 02:07:06;;;;;;;2.80;1.70;;;;;;;;;;5030180;28;20032;-69
2021/07/06 02:09:31;;;;;;;2.95;1.85;;;;;;;;;;5030012;28;20047;-68
2021/07/06 02:11:56;;;;;;;1.73;1.45;;;;;;;;;;5030359;28;20067;-69
2021/07/06 02:14:22;;;;;;;1.60;1.50;;;;;;;;;;5029469;28;20057;-69
2021/07/06 02:16:47;;;;;;;2.75;1.35;;;;;;;;;;5028488;28;20273;-68
2021/07/06 02:19:12;;;;;;;3.45;1.42;;;;;;;;;;5032748;28;20080;-68
2021/07/06 02:21:37;;;;;;;1.67;1.57;;;;;;;;;;5049406;28;20036;-68
2021/07/06 02:24:03;;;;;;;1.98;1.40;;;;;;;;;;5051013;28;20309;-68
2021/07/06 02:26:28;;;;;;;1.70;1.60;;;;;;;;;;5049465;28;20047;-67
2021/07/06 02:28:53;;;;;;;1.80;1.70;;;;;;;;;;5049560;28;20090;-67
2021/07/06 02:31:18;;;;;;;2.67;1.70;;;;;;;;;;5048913;28;20068;-68
2021/07/06 02:33:43;;;;;;;2.38;1.80;;;;;;;;;;5032129;28;20272;-68
2021/07/06 02:36:09;;;;;;;2.35;1.70;;;;;;;;;;5029592;28;20434;-68
2021/07/06 02:38:35;;;;;;;3.17;1.50;;;;;;;;;;5029339;28;20061;-68
2021/07/06 02:41:00;;;;;;;2.47;1.92;;;;;;;;;;5028169;28;20111;-68
2021/07/06 02:43:26;;;;;;;3.53;1.85;;;;;;;;;;5029083;28;20072;-68
2021/07/06 02:45:51;;;;;;;2.50;1.50;;;;;;;;;;5029288;28;20036;-68
2021/07/06 02:48:16;;;;;;;1.80;1.70;;;;;;;;;;5028407;28;20030;-68
2021/07/06 02:50:42;;;;;;;2.60;2.40;;;;;;;;;;5031110;28;20088;-69
2021/07/06 02:53:08;;;;;;;2.53;2.33;;;;;;;;;;5028926;28;20116;-68
2021/07/06 02:55:33;;;;;;;2.45;2.20;;;;;;;;;;5028983;28;20033;-68
2021/07/06 02:57:58;;;;;;;1.80;1.70;;;;;;;;;;5029112;28;20042;-68
2021/07/06 03:00:27;;;;;;;2.38;2.17;;;;;;;;;;5027267;28;20118;-68
2021/07/06 03:02:54;;;;;;;2.10;1.90;;;;;;;;;;5024614;28;20109;-68
2021/07/06 03:05:20;;;;;;;2.50;1.88;;;;;;;;;;5027273;28;20505;-68
2021/07/06 03:07:45;;;;;;;2.75;2.15;;;;;;;;;;5028812;28;20095;-67
2021/07/06 03:10:12;;;;;;;3.45;2.63;;;;;;;;;;5028690;28;20419;-68
2021/07/06 03:12:38;;;;;;;2.15;1.98;;;;;;;;;;5028259;28;20042;-68
2021/07/06 03:15:05;;;;;;;5.43;2.63;;;;;;;;;;5030644;28;20017;-68
2021/07/06 03:17:30;;;;;;;2.33;2.13;;;;;;;;;;5027990;28;20056;-68
2021/07/06 03:19:55;;;;;;;2.42;2.22;;;;;;;;;;5028334;28;20033;-68
2021/07/06 03:22:21;;;;;;;3.30;2.15;;;;;;;;;;5028206;28;20034;-68
2021/07/06 03:24:46;;;;;;;2.58;2.47;;;;;;;;;;5027404;28;20100;-67
2021/07/06 03:27:11;;;;;;;2.38;2.03;;;;;;;;;;5030937;28;20584;-68
2021/07/06 03:29:36;;;;;;;5.15;2.30;;;;;;;;;;5029141;28;20029;-67
2021/07/06 03:32:02;;;;;;;4.20;2.10;;;;;;;;;;5028940;28;20040;-68
2021/07/06 03:34:27;;;;;;;2.20;1.88;;;;;;;;;;5027847;28;20302;-68
2021/07/06 03:36:52;;;;;;;2.08;1.92;;;;;;;;;;5028261;28;20044;-69
2021/07/06 03:39:18;;;;;;;1.50;1.40;;;;;;;;;;5028625;28;20029;-69
2021/07/06 03:41:43;;;;;;;1.70;1.60;;;;;;;;;;5030022;28;20017;-68
2021/07/06 03:44:08;;;;;;;2.15;1.60;;;;;;;;;;5027880;28;20095;-68
2021/07/06 03:46:33;;;;;;;1.92;1.60;;;;;;;;;;5028188;28;20036;-68
2021/07/06 03:49:02;;;;;;;2.10;1.55;;;;;;;;;;5027562;28;20037;-68
2021/07/06 03:51:27;;;;;;;2.67;1.88;;;;;;;;;;5028277;28;20022;-67
2021/07/06 03:53:53;;;;;;;3.28;1.90;;;;;;;;;;5029955;28;20053;-67
2021/07/06 03:56:18;;;;;;;3.97;1.53;;;;;;;;;;5028241;28;20459;-68
2021/07/06 03:58:43;;;;;;;6.03;1.90;;;;;;;;;;5028112;28;20284;-68
2021/07/06 04:01:08;;;;;;;2.10;2.00;;;;;;;;;;5028333;28;20042;-68
2021/07/06 04:03:33;;;;;;;3.15;1.52;;;;;;;;;;5027184;28;20291;-68
2021/07/06 04:05:59;;;;;;;1.70;1.60;;;;;;;;;;5025617;28;20022;-69
2021/07/06 04:08:24;;;;;;;1.75;1.65;;;;;;;;;;5008306;28;20026;-68
2021/07/06 04:10:49;;;;;;;1.33;1.23;;;;;;;;;;5008331;28;20064;-68
2021/07/06 04:13:14;;;;;;;2.80;1.23;;;;;;;;;;5006996;28;20030;-69
2021/07/06 04:15:39;;;;;;;1.83;1.20;;;;;;;;;;5008632;28;20037;-68
2021/07/06 04:18:05;;;;;;;3.70;1.15;;;;;;;;;;5015488;28;20036;-67
2021/07/06 04:20:30;;;;;;;2.97;1.10;;;;;;;;;;5028026;28;20022;-68
2021/07/06 04:22:55;;;;;;;4.30;1.10;;;;;;;;;;5027785;28;20042;-69
2021/07/06 04:25:21;;;;;;;2.45;1.10;;;;;;;;;;5027465;28;20037;-69
2021/07/06 04:27:46;;;;;;;2.92;1.25;;;;;;;;;;5028065;28;20044;-69
2021/07/06 04:30:12;;;;;;;2.35;1.38;;;;;;;;;;5029757;28;20104;-70
2021/07/06 04:32:37;;;;;;;2.50;1.30;;;;;;;;;;5026651;28;20022;-69
2021/07/06 04:35:03;;;;;;;2.22;1.15;;;;;;;;;;5030610;28;20723;-69
2021/07/06 04:37:29;;;;;;;3.08;1.08;;;;;;;;;;5047666;28;20508;-70
2021/07/06 04:39:55;;;;;;;2.72;1.10;;;;;;;;;;5047655;28;20036;-70
2021/07/06 04:42:21;;;;;;;2.33;1.20;;;;;;;;;;5047107;28;20022;-70
2021/07/06 04:44:46;;;;;;;1.23;1.05;;;;;;;;;;5049553;28;20032;-69
2021/07/06 04:47:11;;;;;;;2.17;1.30;;;;;;;;;;5047838;28;20040;-70
2021/07/06 04:49:36;;;;;;;2.95;1.30;;;;;;;;;;5032881;28;20268;-70
2021/07/06 04:52:02;;;;;;;2.22;1.35;;;;;;;;;;5030020;28;20149;-70
2021/07/06 04:54:27;;;;;;;0.80;0.80;;;;;;;;;;5031024;28;20017;-68
2021/07/06 04:56:53;;;;;;;2.27;1.10;;;;;;;;;;5032985;28;20033;-69
2021/07/06 04:59:21;;;;;;;2.45;1.00;;;;;;;;;;5031121;28;20648;-69
2021/07/06 05:01:46;;;;;;;1.40;1.10;;;;;;;;;;5029684;28;20033;-69
2021/07/06 05:04:12;;;;;;;2.83;1.20;;;;;;;;;;5028785;28;20064;-68
2021/07/06 05:06:37;;;;;;;1.20;1.10;;;;;;;;;;5031095;28;20044;-69
2021/07/06 05:09:02;;;;;;;1.35;1.25;;;;;;;;;;5032889;28;20021;-69
2021/07/06 05:11:28;;;;;;;2.58;1.23;;;;;;;;;;5029225;28;20116;-69
2021/07/06 05:13:53;;;;;;;1.90;1.25;;;;;;;;;;5029114;28;20364;-70
2021/07/06 05:16:18;;;;;;;5.30;1.27;;;;;;;;;;5029516;28;20037;-69
2021/07/06 05:18:43;;;;;;;1.95;1.30;;;;;;;;;;5025930;28;20281;-69
2021/07/06 05:21:09;;;;;;;4.50;1.60;;;;;;;;;;5024526;28;20014;-69
2021/07/06 05:23:34;;;;;;;2.07;1.20;;;;;;;;;;5030115;28;20272;-69
2021/07/06 05:25:59;;;;;;;1.50;1.23;;;;;;;;;;5030533;28;20268;-69
2021/07/06 05:28:25;;;;;;;1.45;1.10;;;;;;;;;;5029144;28;20272;-69
2021/07/06 05:30:50;;;;;;;2.63;1.02;;;;;;;;;;5030338;28;20088;-70
2021/07/06 05:33:15;;;;;;;2.47;1.15;;;;;;;;;;5027975;28;20113;-69
2021/07/06 05:35:40;;;;;;;1.07;0.73;;;;;;;;;;5032242;28;20048;-70
2021/07/06 05:38:06;;;;;;;2.17;0.80;;;;;;;;;;5028873;28;20327;-69
2021/07/06 05:40:31;;;;;;;2.00;1.05;;;;;;;;;;5029795;28;20487;-69
2021/07/06 05:42:56;;;;;;;4.40;1.08;;;;;;;;;;5029682;28;20042;-69
2021/07/06 05:45:22;;;;;;;2.05;1.10;;;;;;;;;;5030294;28;20045;-70
2021/07/06 05:47:47;;;;;;;4.63;1.50;;;;;;;;;;5031952;28;20026;-70
2021/07/06 05:50:15;;;;;;;2.95;1.48;;;;;;;;;;5029640;28;20260;-70
2021/07/06 05:52:40;;;;;;;1.90;1.30;;;;;;;;;;5029759;28;20038;-70
2021/07/06 05:55:06;;;;;;;1.25;1.10;;;;;;;;;;5030023;28;20034;-70
2021/07/06 05:57:32;;;;;;;2.15;0.98;;;;;;;;;;5028612;28;20041;-70
2021/07/06 05:59:57;;;;;;;1.33;1.10;;;;;;;;;;5031529;28;20060;-70
2021/07/06 06:02:23;;;;;;;1.23;0.93;;;;;;;;;;5028179;28;20095;-70
2021/07/06 06:04:48;;;;;;;1.85;0.95;;;;;;;;;;5029010;28;20140;-70
2021/07/06 06:07:13;;;;;;;2.10;1.00;;;;;;;;;;5029546;28;20034;-69
2021/07/06 06:09:38;;;;;;;3.67;1.43;;;;;;;;;;5029771;28;20265;-69
2021/07/06 06:12:04;;;;;;;2.00;0.90;;;;;;;;;;5031761;28;20359;-70
2021/07/06 06:14:29;;;;;;;1.05;0.73;;;;;;;;;;5029671;28;20751;-70
2021/07/06 06:16:54;;;;;;;4.77;1.40;;;;;;;;;;5028425;28;20045;-70
2021/07/06 06:19:19;;;;;;;2.20;1.20;;;;;;;;;;5028747;28;20284;-70
2021/07/06 06:21:44;;;;;;;1.80;1.00;;;;;;;;;;5037638;28;20271;-70
2021/07/06 06:24:10;;;;;;;1.67;1.00;;;;;;;;;;5051169;28;20317;-70
2021/07/06 06:26:35;;;;;;;1.77;0.90;;;;;;;;;;5049349;28;20306;-70
2021/07/06 06:29:00;;;;;;;13.70;1.83;;;;;;;;;;5048951;28;20256;-70
2021/07/06 06:31:25;;;;;;;2.47;1.17;;;;;;;;;;5049210;28;20091;-70
2021/07/06 06:33:50;;;;;;;4.13;1.20;;;;;;;;;;5041159;28;20639;-70
2021/07/06 06:36:16;;;;;;;3.03;1.27;;;;;;;;;;5028915;28;20300;-72
2021/07/06 06:38:41;;;;;;;2.08;0.70;;;;;;;;;;5031253;28;20406;-70
2021/07/06 06:41:06;;;;;;;2.35;1.00;;;;;;;;;;5029155;28;20049;-71
2021/07/06 06:43:32;;;;;;;3.25;1.10;;;;;;;;;;5029001;28;20039;-70
2021/07/06 06:45:57;;;;;;;2.73;1.00;;;;;;;;;;5029057;28;20076;-71
2021/07/06 06:48:22;;;;;;;2.72;1.10;;;;;;;;;;5028439;28;20276;-71
2021/07/06 06:50:47;;;;;;;2.17;1.00;;;;;;;;;;5031388;28;20048;-71
2021/07/06 06:53:12;;;;;;;1.50;0.93;;;;;;;;;;5047052;28;20342;-70
2021/07/06 06:55:38;;;;;;;0.80;0.80;;;;;;;;;;5047188;28;20627;-70
2021/07/06 06:58:03;;;;;;;1.10;0.77;;;;;;;;;;5047659;28;20056;-70
2021/07/06 07:00:30;;;;;;;1.02;0.80;;;;;;;;;;5048664;28;20044;-70
2021/07/06 07:02:56;;;;;;;2.17;1.00;;;;;;;;;;5050447;28;20386;-70
2021/07/06 07:05:21;;;;;;;1.73;0.70;;;;;;;;;;5029451;28;20043;-69
2021/07/06 07:07:46;;;;;;;1.83;0.80;;;;;;;;;;5028603;28;20279;-70
2021/07/06 07:10:12;;;;;;;0.95;0.90;;;;;;;;;;5028020;28;20056;-69
2021/07/06 07:12:39;;;;;;;4.22;1.55;;;;;;;;;;5028308;28;20025;-70
2021/07/06 07:15:05;;;;;;;0.93;0.70;;;;;;;;;;5030808;28;20616;-70
2021/07/06 07:17:31;;;;;;;1.48;0.73;;;;;;;;;;5028628;28;20041;-70
2021/07/06 07:19:56;;;;;;;2.40;0.93;;;;;;;;;;5029261;28;20080;-70
2021/07/06 07:22:21;;;;;;;1.27;0.90;;;;;;;;;;5034533;28;20276;-70
2021/07/06 07:24:46;;;;;;;1.53;0.80;;;;;;;;;;5028834;28;20522;-70
2021/07/06 07:27:11;;;;;;;3.05;1.00;;;;;;;;;;5031136;28;20288;-70
2021/07/06 07:29:37;;;;;;;1.60;1.20;;;;;;;;;;5029191;28;20508;-69
2021/07/06 07:32:05;;;;;;;0.73;0.73;;;;;;;;;;5028176;28;20040;-70
2021/07/06 07:34:30;;;;;;;0.95;0.88;;;;;;;;;;5027276;28;20273;-69
2021/07/06 07:36:55;;;;;;;2.40;0.93;;;;;;;;;;5028104;28;20087;-70
2021/07/06 07:39:20;;;;;;;1.40;0.73;;;;;;;;;;5028033;28;20313;-70
2021/07/06 07:41:45;;;;;;;3.33;0.87;;;;;;;;;;5030230;28;20343;-71
2021/07/06 07:44:11;;;;;;;0.80;0.80;;;;;;;;;;5027600;28;20355;-70
2021/07/06 07:46:36;;;;;;;2.05;0.80;;;;;;;;;;5026573;28;20042;-70
2021/07/06 07:49:02;;;;;;;1.10;0.80;;;;;;;;;;5027100;28;20038;-70
2021/07/06 07:51:27;;;;;;;1.25;0.70;;;;;;;;;;5028137;28;20025;-70
2021/07/06 07:53:52;;;;;;;0.60;0.60;;;;;;;;;;5029850;28;20041;-73
2021/07/06 07:56:17;;;;;;;0.98;0.70;;;;;;;;;;5027654;28;20762;-69
2021/07/06 07:58:42;;;;;;;1.75;0.82;;;;;;;;;;5027926;28;20037;-70
2021/07/06 08:01:08;;;;;;;1.53;0.93;;;;;;;;;;5027876;28;20045;-69
2021/07/06 08:03:33;;;;;;;1.83;0.85;;;;;;;;;;5026926;28;20268;-70
2021/07/06 08:05:59;;;;;;;1.20;1.10;;;;;;;;;;5029604;28;20029;-69
2021/07/06 08:08:24;;;;;;;2.25;0.90;;;;;;;;;;5026738;28;20269;-71
2021/07/06 08:10:53;;;;;;;0.80;0.80;;;;;;;;;;5027791;28;20030;-69
2021/07/06 08:13:19;;;;;;;1.63;0.68;;;;;;;;;;5027480;28;20026;-70
2021/07/06 08:15:44;;;;;;;2.38;1.30;;;;;;;;;;5028005;28;20034;-69
2021/07/06 08:18:09;;;;;;;1.23;0.87;;;;;;;;;;5030000;28;20112;-69
2021/07/06 08:20:34;;;;;;;1.30;0.80;;;;;;;;;;5026934;28;20271;-69
2021/07/06 08:23:00;;;;;;;3.08;0.93;;;;;;;;;;5030389;28;20306;-69
2021/07/06 08:25:26;;;;;;;2.20;0.90;;;;;;;;;;5031688;28;20045;-69
2021/07/06 08:27:51;;;;;;;0.70;0.70;;;;;;;;;;5031786;28;20276;-70
2021/07/06 08:30:16;;;;;;;2.60;1.00;;;;;;;;;;5032405;28;20036;-70
2021/07/06 08:32:41;;;;;;;2.05;0.80;;;;;;;;;;5030873;28;20295;-69
2021/07/06 08:35:07;;;;;;;2.17;1.10;;;;;;;;;;5030623;28;20514;-70
2021/07/06 08:37:32;;;;;;;2.25;0.70;;;;;;;;;;5031372;28;20107;-70
2021/07/06 08:39:59;;;;;;;1.47;0.90;;;;;;;;;;5031260;28;20098;-71
2021/07/06 08:42:25;;;;;;;0.88;0.85;;;;;;;;;;5031149;28;20256;-70
2021/07/06 08:44:50;;;;;;;2.67;1.02;;;;;;;;;;5033312;28;20025;-70
2021/07/06 08:47:16;;;;;;;1.90;1.10;;;;;;;;;;5031512;28;20467;-70
2021/07/06 08:49:42;;;;;;;1.65;0.93;;;;;;;;;;5030556;28;20099;-71
2021/07/06 08:52:09;;;;;;;1.98;0.90;;;;;;;;;;5030789;28;20054;-70
2021/07/06 08:54:34;;;;;;;3.45;1.00;;;;;;;;;;5030836;28;20037;-70
2021/07/06 08:57:00;;;;;;;1.03;0.90;;;;;;;;;;5032964;28;20017;-70
2021/07/06 08:59:25;;;;;;;1.83;1.00;;;;;;;;;;5030895;28;20267;-69
2021/07/06 09:01:51;;;;;;;1.27;0.83;;;;;;;;;;5030747;28;20267;-70
2021/07/06 09:04:16;;;;;;;3.28;1.00;;;;;;;;;;5029841;28;20490;-69
2021/07/06 09:06:54;;;;;;;2.47;0.90;;;;;;;;;;5030735;28;20037;-70
2021/07/06 09:09:23;;;;;;;2.38;0.63;;;;;;;;;;5030579;28;20291;-70
2021/07/06 09:11:50;;;;;;;2.10;0.80;;;;;;;;;;5032850;28;20013;-71
2021/07/06 09:14:16;;;;;;;1.45;1.10;;;;;;;;;;5030291;28;20038;-71
2021/07/06 09:16:41;;;;;;;1.75;0.80;;;;;;;;;;5030895;28;20453;-71
2021/07/06 09:19:16;;;;;;;1.52;0.80;;;;;;;;;;5029716;28;20033;-69
2021/07/06 09:21:41;;;;;;;1.95;1.05;;;;;;;;;;5030262;28;20208;-70
2021/07/06 09:24:20;;;;;;;1.52;0.70;;;;;;;;;;5032118;28;20545;-70
2021/07/06 09:26:45;;;;;;;0.73;0.73;;;;;;;;;;5031086;28;20046;-71
2021/07/06 09:29:13;;;;;;;2.33;0.77;;;;;;;;;;5030553;28;20026;-70
2021/07/06 09:31:38;;;;;;;1.95;0.80;;;;;;;;;;5030789;28;20264;-70
2021/07/06 09:34:07;;;;;;;4.57;0.80;;;;;;;;;;5028598;28;20060;-69
2021/07/06 09:36:34;;;;;;;0.75;0.75;;;;;;;;;;5030642;28;20120;-71
2021/07/06 09:39:02;;;;;;;1.48;0.70;;;;;;;;;;5032236;28;20041;-70
2021/07/06 09:41:28;;;;;;;1.48;0.80;;;;;;;;;;5030577;28;20053;-71
2021/07/06 09:43:53;;;;;;;0.95;0.90;;;;;;;;;;5029747;28;20732;-71
2021/07/06 09:46:18;;;;;;;1.00;0.70;;;;;;;;;;5030062;28;20398;-71
2021/07/06 09:48:47;;;;;;;1.57;1.07;;;;;;;;;;5030056;28;20279;-71
2021/07/06 09:51:17;;;;;;;1.85;0.80;;;;;;;;;;5035016;28;20255;-71
2021/07/06 09:53:52;;;;;;;2.05;1.05;;;;;;;;;;5032935;28;20041;-71
2021/07/06 09:56:19;;;;;;;1.95;0.73;;;;;;;;;;5029881;28;20183;-72
2021/07/06 09:58:53;;;;;;;1.60;0.68;;;;;;;;;;5030053;28;20050;-71
2021/07/06 10:01:18;;;;;;;1.38;0.70;;;;;;;;;;5030063;28;20706;-71
2021/07/06 10:03:44;;;;;;;1.97;0.97;;;;;;;;;;5029685;28;20044;-71
2021/07/06 10:06:11;;;;;;;0.82;0.70;;;;;;;;;;5030961;28;20313;-71
2021/07/06 10:08:36;;;;;;;1.45;0.88;;;;;;;;;;5029812;28;20403;-70
2021/07/06 10:11:01;;;;;;;1.00;0.85;;;;;;;;;;5029795;28;20038;-71
2021/07/06 10:13:26;;;;;;;0.80;0.80;;;;;;;;;;5029321;28;20116;-70
2021/07/06 10:15:52;;;;;;;1.48;0.70;;;;;;;;;;5029744;28;20128;-70
2021/07/06 10:18:17;;;;;;;1.92;0.85;;;;;;;;;;5031407;28;20098;-70
2021/07/06 10:20:43;;;;;;;1.95;0.80;;;;;;;;;;5023440;28;20493;-70
2021/07/06 10:23:08;;;;;;;0.80;0.80;;;;;;;;;;5028794;28;20056;-71
2021/07/06 10:25:35;;;;;;;2.13;0.70;;;;;;;;;;5029328;28;20090;-72
2021/07/06 10:28:02;;;;;;;0.75;0.73;;;;;;;;;;5029491;28;20042;-70
2021/07/06 10:30:29;;;;;;;2.45;0.80;;;;;;;;;;5030066;28;20035;-70
2021/07/06 10:32:56;;;;;;;1.65;0.65;;;;;;;;;;5031036;28;20018;-71
2021/07/06 10:35:42;;;;;;;1.27;0.77;;;;;;;;;;5028510;28;20036;-71
2021/07/06 10:38:25;;;;;;;0.60;0.60;;;;;;;;;;5028956;28;20517;-70
2021/07/06 10:40:51;;;;;;;0.60;0.60;;;;;;;;;;5029053;28;20049;-72
2021/07/06 10:43:35;;;;;;;1.77;0.80;;;;;;;;;;5028752;28;20434;-71
2021/07/06 10:46:19;;;;;;;1.48;0.60;;;;;;;;;;5028246;28;20277;-72
2021/07/06 10:48:45;;;;;;;1.75;0.45;;;;;;;;;;5028962;28;20033;-71
2021/07/06 10:51:29;;;;;;;0.88;0.55;;;;;;;;;;5030264;28;20017;-71
2021/07/06 10:54:03;;;;;;;1.65;0.65;;;;;;;;;;5028974;28;20050;-71
2021/07/06 10:56:36;;;;;;;1.67;0.50;;;;;;;;;;5028763;28;20049;-71
2021/07/06 10:59:04;;;;;;;1.52;0.50;;;;;;;;;;5027599;28;20048;-71
2021/07/06 11:01:35;;;;;;;0.73;0.52;;;;;;;;;;5028784;28;20021;-70
2021/07/06 11:04:01;;;;;;;1.10;0.63;;;;;;;;;;5028253;28;20490;-70
2021/07/06 11:06:47;;;;;;;1.27;0.80;;;;;;;;;;5027956;28;20104;-71
2021/07/06 11:09:24;;;;;;;1.80;0.57;;;;;;;;;;5030671;28;20093;-70
2021/07/06 11:11:50;;;;;;;0.70;0.47;;;;;;;;;;5029188;28;20056;-70
2021/07/06 11:14:18;;;;;;;1.00;0.60;;;;;;;;;;5028264;28;20057;-71
2021/07/06 11:16:54;;;;;;;1.50;0.50;;;;;;;;;;5028397;28;20804;-71
2021/07/06 11:19:35;;;;;;;0.40;0.40;;;;;;;;;;5026583;28;20037;-71
2021/07/06 11:22:00;;;;;;;;;;;;;;;;;;5027055;28;20029;-70
2021/07/06 11:24:37;;;;;;;1.88;0.50;;;;;;;;;;5026486;28;19913;-70
2021/07/06 11:27:02;;;;;;;1.00;0.80;;;;;;;;;;5030619;28;20117;-71
2021/07/06 11:29:33;;;;;;;1.42;0.60;;;;;;;;;;5028368;28;20120;-72
2021/07/06 11:32:07;;;;;;;1.10;0.50;;;;;;;;;;5027878;28;20053;-71
2021/07/06 11:34:33;;;;;;;0.90;0.80;;;;;;;;;;5025998;28;20038;-70
2021/07/06 11:37:02;;;;;;;3.63;0.75;;;;;;;;;;5025330;28;20042;-71
2021/07/06 11:39:27;;;;;;;0.52;0.52;;;;;;;;;;5026848;28;20033;-72
2021/07/06 11:41:52;;;;;;;1.33;0.60;;;;;;;;;;5030092;28;20014;-71
2021/07/06 11:44:18;;;;;;;1.80;0.53;;;;;;;;;;5026436;28;20056;-72
2021/07/06 11:46:44;;;;;;;0.60;0.40;;;;;;;;;;5027143;28;20021;-72
2021/07/06 11:49:09;;;;;;;0.53;0.50;;;;;;;;;;5028046;28;20511;-71
2021/07/06 11:51:38;;;;;;;2.38;0.50;;;;;;;;;;5027391;28;20299;-71
2021/07/06 11:54:03;;;;;;;0.50;0.50;;;;;;;;;;5029536;28;20026;-72
2021/07/06 11:56:29;;;;;;;0.75;0.43;;;;;;;;;;5027073;28;20037;-72
2021/07/06 11:58:55;;;;;;;0.40;0.40;;;;;;;;;;5032147;28;20044;-74
2021/07/06 12:01:21;;;;;;;0.40;0.40;;;;;;;;;;5030884;28;20037;-72
2021/07/06 12:03:46;;;;;;;1.25;0.50;;;;;;;;;;5031873;28;20029;-71
2021/07/06 12:06:16;;;;;;;1.10;0.40;;;;;;;;;;5033222;28;20068;-71
2021/07/06 12:08:46;;;;;;;0.65;0.65;;;;;;;;;;5032204;28;20061;-72
2021/07/06 12:11:25;;;;;;;0.70;0.57;;;;;;;;;;5032095;28;20103;-71
2021/07/06 12:13:51;;;;;;;0.50;0.50;;;;;;;;;;5030295;28;20391;-72
2021/07/06 12:16:20;;;;;;;0.95;0.45;;;;;;;;;;5031791;28;20018;-71
2021/07/06 12:18:52;;;;;;;1.00;0.38;;;;;;;;;;5031777;28;20490;-72
2021/07/06 12:21:37;;;;;;;1.42;0.40;;;;;;;;;;5032892;28;20036;-72
2021/07/06 12:24:09;;;;;;;2.45;0.55;;;;;;;;;;5031496;28;20534;-71
2021/07/06 12:26:38;;;;;;;1.17;0.50;;;;;;;;;;5031892;28;20049;-71
2021/07/06 12:29:03;;;;;;;2.17;0.40;;;;;;;;;;5030324;28;20091;-71
2021/07/06 12:31:29;;;;;;;0.40;0.40;;;;;;;;;;5031891;28;20029;-71
2021/07/06 12:33:57;;;;;;;2.95;0.57;;;;;;;;;;5031071;28;20033;-72
2021/07/06 12:36:29;;;;;;;0.93;0.52;;;;;;;;;;5030320;28;20360;-72
2021/07/06 12:39:07;;;;;;;0.77;0.30;;;;;;;;;;5031966;28;20029;-72
2021/07/06 12:41:38;;;;;;;0.40;0.40;;;;;;;;;;5031641;28;20044;-73
2021/07/06 12:44:04;;;;;;;1.35;0.40;;;;;;;;;;5031244;28;20040;-73
2021/07/06 12:46:29;;;;;;;1.02;0.75;;;;;;;;;;5031527;28;20033;-73
2021/07/06 12:48:55;;;;;;;1.63;0.50;;;;;;;;;;5031328;28;20034;-73
2021/07/06 12:51:20;;;;;;;0.85;0.40;;;;;;;;;;5029559;28;20020;-74
2021/07/06 12:54:03;;;;;;;0.45;0.45;;;;;;;;;;5051150;28;20526;-72
2021/07/06 12:56:29;;;;;;;1.20;0.55;;;;;;;;;;5051142;28;20033;-72
2021/07/06 12:59:15;;;;;;;2.50;0.60;;;;;;;;;;5050988;28;20037;-72
2021/07/06 13:01:40;;;;;;;2.40;0.30;;;;;;;;;;5050828;28;20486;-72
2021/07/06 13:04:05;;;;;;;0.20;0.20;;;;;;;;;;5050483;28;20059;-72
2021/07/06 13:06:30;;;;;;;0.50;0.50;;;;;;;;;;5035220;28;20033;-72
2021/07/06 13:08:56;;;;;;;0.30;0.30;;;;;;;;;;5031281;28;20037;-72
2021/07/06 13:11:25;;;;;;;0.50;0.40;;;;;;;;;;5029482;28;20560;-72
2021/07/06 13:13:52;;;;;;;0.52;0.40;;;;;;;;;;5030358;28;20033;-72
2021/07/06 13:16:24;;;;;;;1.60;0.40;;;;;;;;;;5030747;28;20041;-72
2021/07/06 13:18:49;;;;;;;0.40;0.40;;;;;;;;;;5029446;28;20356;-72
2021/07/06 13:21:18;;;;;;;0.30;0.30;;;;;;;;;;5031865;28;20075;-72
2021/07/06 13:23:44;;;;;;;1.58;0.40;;;;;;;;;;5030031;28;20269;-71
2021/07/06 13:26:10;;;;;;;1.00;0.43;;;;;;;;;;5030662;28;20049;-71
2021/07/06 13:28:35;;;;;;;1.27;0.50;;;;;;;;;;5029404;28;20030;-71
2021/07/06 13:31:01;;;;;;;0.50;0.50;;;;;;;;;;5030472;28;20394;-71
2021/07/06 13:33:26;;;;;;;0.60;0.40;;;;;;;;;;5030338;28;20025;-72
2021/07/06 13:35:53;;;;;;;0.40;0.30;;;;;;;;;;5031609;28;20102;-72
2021/07/06 13:38:19;;;;;;;0.85;0.20;;;;;;;;;;5030350;28;20038;-72
2021/07/06 13:40:45;;;;;;;1.60;0.40;;;;;;;;;;5030843;28;20095;-71
2021/07/06 13:43:10;;;;;;;0.40;0.40;;;;;;;;;;5028906;28;20041;-71
2021/07/06 13:45:35;;;;;;;0.60;0.50;;;;;;;;;;5029005;28;20057;-71
2021/07/06 13:48:01;;;;;;;0.77;0.50;;;;;;;;;;5031991;28;20028;-71
2021/07/06 13:50:26;;;;;;;0.70;0.50;;;;;;;;;;5029511;28;20033;-71
2021/07/06 13:52:52;;;;;;;0.70;0.50;;;;;;;;;;5029572;28;20133;-71
2021/07/06 13:55:31;;;;;;;1.55;0.40;;;;;;;;;;5028577;28;20116;-71
2021/07/06 13:57:56;;;;;;;0.65;0.43;;;;;;;;;;5030139;28;20487;-71
2021/07/06 14:00:22;;;;;;;3.25;0.60;;;;;;;;;;5029914;28;20018;-71
2021/07/06 14:02:48;;;;;;;0.38;0.38;;;;;;;;;;5030070;28;20022;-72
2021/07/06 14:05:13;;;;;;;2.08;0.50;;;;;;;;;;5029016;28;20045;-71
2021/07/06 14:07:39;;;;;;;0.43;0.43;;;;;;;;;;5029696;28;20095;-71
2021/07/06 14:10:07;;;;;;;2.28;0.60;;;;;;;;;;5028225;28;20087;-71
2021/07/06 14:12:32;;;;;;;3.22;0.57;;;;;;;;;;5029084;28;20080;-70
2021/07/06 14:14:59;;;;;;;1.88;0.50;;;;;;;;;;5031618;28;20105;-71
2021/07/06 14:17:25;;;;;;;0.55;0.50;;;;;;;;;;5029572;28;20148;-71
2021/07/06 14:19:50;;;;;;;2.58;0.50;;;;;;;;;;5029531;28;20124;-71
2021/07/06 14:22:15;;;;;;;2.40;0.70;;;;;;;;;;5028568;28;20034;-71
2021/07/06 14:24:40;;;;;;;0.50;0.40;;;;;;;;;;5029260;28;20725;-70
2021/07/06 14:27:08;;;;;;;0.50;0.50;;;;;;;;;;5031527;28;20018;-71
2021/07/06 14:29:33;;;;;;;1.02;0.60;;;;;;;;;;5029585;28;20112;-70
2021/07/06 14:31:58;;;;;;;2.07;0.53;;;;;;;;;;5028180;28;20177;-71
2021/07/06 14:34:23;;;;;;;0.50;0.50;;;;;;;;;;5029268;28;20029;-71
2021/07/06 14:36:49;;;;;;;1.30;0.47;;;;;;;;;;5028552;28;20041;-71
2021/07/06 14:39:14;;;;;;;1.33;0.57;;;;;;;;;;5031106;28;20096;-71